createdAt,value
2023-10-23T00:02:18.567Z,65.87
2023-10-23T00:05:06.776Z,58.22
2023-10-23T00:07:48.538Z,56.49
2023-10-23T00:10:43.574Z,59.74
2023-10-23T00:13:38.548Z,66.43
2023-10-23T00:16:33.671Z,59.45
2023-10-23T00:19:29.546Z,56.17
2023-10-23T00:22:17.555Z,59.75
2023-10-23T00:24:59.592Z,66.30
2023-10-23T00:27:54.594Z,61.86
2023-10-23T00:30:43.651Z,56.16
2023-10-23T00:33:25.741Z,58.39
2023-10-23T00:36:13.559Z,62.96
2023-10-23T00:38:55.544Z,66.28
2023-10-23T00:41:43.566Z,60.40
2023-10-23T00:44:18.664Z,55.77
2023-10-23T00:47:06.588Z,57.71
2023-10-23T00:49:41.670Z,61.22
2023-10-23T00:52:29.537Z,67.86
2023-10-23T00:55:05.046Z,62.97
2023-10-23T00:57:52.611Z,56.87
2023-10-23T01:00:27.908Z,57.96
2023-10-23T01:03:15.661Z,61.27
2023-10-23T01:05:50.743Z,67.85
2023-10-23T01:08:38.556Z,61.50
2023-10-23T01:11:19.750Z,55.85
2023-10-23T01:14:00.568Z,57.70
2023-10-23T01:16:41.721Z,61.47
2023-10-23T01:19:36.575Z,67.39
2023-10-23T01:22:24.557Z,60.78
2023-10-23T01:24:59.859Z,55.53
2023-10-23T01:27:47.590Z,57.96
2023-10-23T01:30:22.741Z,61.87
2023-10-23T01:33:10.582Z,67.30
2023-10-23T01:35:45.689Z,61.28
2023-10-23T01:38:33.547Z,56.66
2023-10-23T01:41:08.684Z,58.21
2023-10-23T01:43:56.562Z,61.68
2023-10-23T01:46:31.709Z,68.19
2023-10-23T01:49:19.540Z,61.61
2023-10-23T01:51:53.717Z,56.58
2023-10-23T01:54:41.730Z,59.10
2023-10-23T01:57:16.808Z,62.68
2023-10-23T02:00:11.561Z,66.67
2023-10-23T02:02:46.714Z,60.34
2023-10-23T02:05:34.569Z,56.10
2023-10-23T02:08:10.335Z,59.14
2023-10-23T02:10:59.534Z,64.08
2023-10-23T02:13:34.696Z,63.94
2023-10-23T02:16:22.596Z,57.98
2023-10-23T02:18:57.745Z,57.89
2023-10-23T02:21:45.577Z,61.33
2023-10-23T02:24:30.584Z,67.15
2023-10-23T02:27:18.677Z,60.39
2023-10-23T02:29:53.794Z,56.55
2023-10-23T02:32:41.657Z,59.78
2023-10-23T02:35:22.678Z,65.65
2023-10-23T02:38:03.563Z,62.13
2023-10-23T02:40:44.660Z,56.59
2023-10-23T02:43:25.525Z,58.25
2023-10-23T02:46:17.551Z,63.49
2023-10-23T02:48:52.144Z,64.07
2023-10-23T02:51:40.644Z,57.07
2023-10-23T02:54:15.945Z,58.68
2023-10-23T02:57:03.545Z,63.06
2023-10-23T02:59:38.149Z,66.30
2023-10-23T03:02:26.548Z,59.20
2023-10-23T03:05:00.972Z,56.38
2023-10-23T03:07:48.562Z,59.74
2023-10-23T03:10:22.929Z,65.63
2023-10-23T03:13:10.576Z,61.40
2023-10-23T03:15:45.346Z,55.38
2023-10-23T03:18:33.694Z,57.03
2023-10-23T03:21:09.092Z,59.56
2023-10-23T03:23:56.609Z,66.97
2023-10-23T03:26:37.583Z,62.49
2023-10-23T03:29:18.769Z,55.78
2023-10-23T03:32:00.701Z,56.35
2023-10-23T03:34:41.731Z,59.74
2023-10-23T03:37:23.541Z,61.79
2023-10-23T03:40:04.777Z,69.93
2023-10-23T03:42:45.572Z,62.93
2023-10-23T03:45:26.667Z,55.76
2023-10-23T03:48:07.519Z,56.90
2023-10-23T03:50:55.557Z,60.29
2023-10-23T03:53:30.239Z,66.69
2023-10-23T03:56:21.537Z,62.12
2023-10-23T03:59:02.538Z,55.65
2023-10-23T04:01:50.549Z,57.20
2023-10-23T04:04:25.172Z,60.95
2023-10-23T04:07:13.585Z,68.11
2023-10-23T04:10:08.524Z,61.66
2023-10-23T04:12:56.542Z,55.02
2023-10-23T04:15:31.710Z,57.35
2023-10-23T04:18:19.520Z,60.34
2023-10-23T04:20:54.643Z,66.66
2023-10-23T04:23:43.541Z,62.60
2023-10-23T04:26:18.650Z,56.24
2023-10-23T04:29:06.549Z,57.41
2023-10-23T04:31:41.698Z,60.11
2023-10-23T04:34:29.551Z,67.11
2023-10-23T04:37:04.684Z,63.13
2023-10-23T04:39:52.584Z,56.59
2023-10-23T04:42:27.702Z,56.97
2023-10-23T04:45:16.534Z,60.18
2023-10-23T04:47:51.710Z,66.50
2023-10-23T04:50:40.545Z,62.45
2023-10-23T04:53:22.551Z,55.87
2023-10-23T04:56:19.554Z,57.13
2023-10-23T04:59:07.556Z,60.61
2023-10-23T05:01:42.711Z,66.95
2023-10-23T05:04:30.642Z,63.20
2023-10-23T05:07:05.724Z,56.11
2023-10-23T05:09:53.577Z,56.52
2023-10-23T05:12:29.924Z,59.90
2023-10-23T05:15:17.546Z,66.06
2023-10-23T05:17:52.760Z,62.17
2023-10-23T05:20:48.555Z,56.10
2023-10-23T05:23:29.922Z,57.72
2023-10-23T05:26:20.542Z,61.11
2023-10-23T05:29:02.541Z,67.52
2023-10-23T05:31:43.675Z,62.79
2023-10-23T05:34:24.544Z,56.58
2023-10-23T05:37:05.876Z,56.98
2023-10-23T05:39:47.554Z,60.01
2023-10-23T05:42:35.569Z,65.94
2023-10-23T05:45:10.779Z,62.20
2023-10-23T05:47:58.582Z,55.88
2023-10-23T05:50:32.979Z,57.30
2023-10-23T05:53:20.485Z,60.64
2023-10-23T05:55:55.403Z,66.41
2023-10-23T05:58:43.524Z,61.68
2023-10-23T06:01:18.452Z,56.51
2023-10-23T06:04:06.571Z,58.37
2023-10-23T06:06:41.076Z,62.85
2023-10-23T06:09:29.575Z,65.63
2023-10-23T06:12:12.508Z,60.10
2023-10-23T06:15:00.626Z,55.66
2023-10-23T06:17:42.516Z,58.25
2023-10-23T06:20:37.500Z,61.58
2023-10-23T06:23:25.868Z,67.74
2023-10-23T06:26:10.693Z,61.22
2023-10-23T06:28:58.550Z,54.46
2023-10-23T06:31:33.744Z,56.94
2023-10-23T06:34:21.512Z,59.52
2023-10-23T06:37:04.651Z,64.22
2023-10-23T06:40:00.967Z,63.62
2023-10-23T06:42:48.498Z,54.47
2023-10-23T06:45:37.766Z,55.80
2023-10-23T06:48:52.533Z,59.70
2023-10-23T06:51:40.517Z,64.97
2023-10-23T06:54:15.699Z,62.77
2023-10-23T06:57:03.520Z,54.64
2023-10-23T06:59:38.952Z,55.20
2023-10-23T07:02:27.524Z,58.01
2023-10-23T07:05:02.873Z,60.89
2023-10-23T07:07:51.500Z,65.40
2023-10-23T07:10:26.610Z,60.19
2023-10-23T07:13:22.032Z,53.74
2023-10-23T07:15:58.832Z,55.88
2023-10-23T07:18:46.675Z,58.57
2023-10-23T07:21:31.530Z,61.16
2023-10-23T07:24:48.146Z,68.44
2023-10-23T07:27:59.561Z,58.27
2023-10-23T07:30:34.638Z,54.46
2023-10-23T07:33:22.537Z,56.13
2023-10-23T07:36:13.568Z,58.36
2023-10-23T07:39:08.488Z,61.46
2023-10-23T07:41:56.474Z,67.82
2023-10-23T07:44:37.516Z,60.59
2023-10-23T07:47:32.497Z,53.53
2023-10-23T07:50:20.523Z,53.88
2023-10-23T07:52:55.718Z,56.47
2023-10-23T07:55:45.473Z,58.36
2023-10-23T07:58:26.664Z,59.25
2023-10-23T08:01:13.771Z,61.15
2023-10-23T08:03:54.727Z,66.76
2023-10-23T08:06:36.527Z,60.35
2023-10-23T08:09:25.467Z,53.08
2023-10-23T08:12:06.493Z,54.35
2023-10-23T08:14:52.767Z,56.60
2023-10-23T08:17:42.184Z,58.17
2023-10-23T08:20:31.457Z,58.12
2023-10-23T08:23:19.497Z,60.10
2023-10-23T08:25:54.605Z,61.07
2023-10-23T08:31:37.506Z,59.51
2023-10-23T08:34:29.638Z,51.42
2023-10-23T08:37:05.107Z,51.31
2023-10-23T08:39:53.797Z,53.84
2023-10-23T08:42:28.927Z,55.82
2023-10-23T08:45:16.490Z,56.90
2023-10-23T08:47:58.720Z,57.93
2023-10-23T08:50:40.706Z,59.22
2023-10-23T08:53:22.643Z,59.16
2023-10-23T08:56:03.499Z,62.42
2023-10-23T08:58:52.466Z,67.28
2023-10-23T09:01:37.026Z,58.69
2023-10-23T09:04:25.753Z,52.15
2023-10-23T09:07:01.913Z,53.08
2023-10-23T09:09:50.516Z,55.37
2023-10-23T09:12:39.475Z,56.59
2023-10-23T09:15:26.249Z,57.62
2023-10-23T09:18:10.846Z,59.02
2023-10-23T09:21:05.764Z,58.77
2023-10-23T09:24:11.690Z,58.85
2023-10-23T09:26:46.614Z,59.27
2023-10-23T09:29:35.497Z,60.18
2023-10-23T09:32:10.663Z,59.90
2023-10-23T09:34:58.504Z,60.94
2023-10-23T09:37:35.694Z,60.72
2023-10-23T09:40:25.814Z,60.59
2023-10-23T09:43:02.550Z,60.38
2023-10-23T09:45:50.528Z,59.14
2023-10-23T09:48:25.711Z,59.51
2023-10-23T09:51:13.478Z,60.15
2023-10-23T09:53:50.628Z,60.21
2023-10-23T09:56:39.734Z,60.13
2023-10-23T09:59:22.450Z,60.38
2023-10-23T10:02:13.560Z,59.97
2023-10-23T10:04:55.864Z,59.60
2023-10-23T10:07:50.776Z,59.69
2023-10-23T10:10:32.637Z,61.32
2023-10-23T10:13:28.502Z,61.80
2023-10-23T10:16:17.815Z,67.51
2023-10-23T10:18:53.940Z,57.43
2023-10-23T10:22:13.560Z,51.89
2023-10-23T10:24:49.810Z,52.63
2023-10-23T10:27:37.790Z,53.66
2023-10-23T10:30:14.594Z,54.63
2023-10-23T10:34:18.432Z,54.36
2023-10-23T10:36:13.709Z,54.62
2023-10-23T10:39:02.454Z,54.85
2023-10-23T10:41:41.878Z,54.34
2023-10-23T10:44:30.470Z,55.55
2023-10-23T10:47:05.649Z,54.18
2023-10-23T10:49:55.484Z,54.51
2023-10-23T10:52:34.693Z,54.10
2023-10-23T10:55:25.554Z,54.58
2023-10-23T10:58:01.500Z,54.29
2023-10-23T11:00:49.516Z,52.87
2023-10-23T11:03:26.044Z,52.85
2023-10-23T11:06:15.837Z,52.73
2023-10-23T11:08:50.597Z,52.61
2023-10-23T11:11:38.530Z,52.56
2023-10-23T11:14:13.869Z,52.53
2023-10-23T11:17:01.623Z,52.48
2023-10-23T11:19:36.675Z,53.15
2023-10-23T11:22:34.518Z,53.05
2023-10-23T11:25:10.596Z,52.76
2023-10-23T11:27:59.712Z,53.13
2023-10-23T11:30:35.996Z,52.79
2023-10-23T11:33:26.866Z,53.35
2023-10-23T11:36:02.303Z,52.32
2023-10-23T11:38:52.503Z,52.49
2023-10-23T11:41:29.721Z,52.19
2023-10-23T11:44:17.468Z,53.98
2023-10-23T11:46:52.779Z,53.62
2023-10-23T11:49:40.633Z,53.35
2023-10-23T11:52:22.609Z,53.45
2023-10-23T11:55:14.562Z,54.07
2023-10-23T11:57:52.739Z,53.80
2023-10-23T12:00:42.482Z,54.26
2023-10-23T12:03:17.639Z,53.62
2023-10-23T12:06:06.542Z,53.71
2023-10-23T12:08:41.952Z,54.24
2023-10-23T12:11:29.494Z,54.95
2023-10-23T12:14:04.650Z,54.42
2023-10-23T12:16:52.511Z,54.96
2023-10-23T12:19:27.655Z,55.47
2023-10-23T12:22:15.525Z,55.52
2023-10-23T12:24:50.642Z,54.89
2023-10-23T12:27:40.474Z,54.25
2023-10-23T12:30:28.979Z,54.34
2023-10-23T12:33:30.308Z,54.97
2023-10-23T12:36:23.477Z,55.06
2023-10-23T12:38:57.681Z,54.78
2023-10-23T12:41:45.542Z,54.06
2023-10-23T12:44:20.786Z,55.01
2023-10-23T12:47:08.570Z,55.98
2023-10-23T12:49:44.132Z,55.43
2023-10-23T12:52:32.479Z,54.88
2023-10-23T12:55:07.623Z,54.61
2023-10-23T12:57:55.640Z,53.24
2023-10-23T13:00:30.768Z,51.66
2023-10-23T13:03:18.492Z,50.36
2023-10-23T13:05:53.589Z,50.41
2023-10-23T13:08:41.522Z,50.86
2023-10-23T13:11:16.633Z,50.77
2023-10-23T13:14:05.469Z,48.32
2023-10-23T13:16:40.721Z,42.83
2023-10-23T13:19:28.503Z,39.47
2023-10-23T13:22:11.593Z,37.96
2023-10-23T13:25:00.466Z,37.32
2023-10-23T13:27:42.482Z,36.42
2023-10-23T13:30:37.501Z,36.62
2023-10-23T13:33:26.460Z,37.08
2023-10-23T13:36:01.653Z,38.80
2023-10-23T13:38:49.481Z,38.92
2023-10-23T13:41:24.612Z,37.90
2023-10-23T13:44:12.476Z,39.24
2023-10-23T13:46:54.576Z,40.03
2023-10-23T13:49:49.575Z,41.15
2023-10-23T13:52:38.486Z,41.06
2023-10-23T13:55:13.690Z,41.12
2023-10-23T13:58:01.519Z,42.13
2023-10-23T14:00:36.615Z,43.03
2023-10-23T14:03:27.576Z,43.77
2023-10-23T14:06:11.513Z,44.29
2023-10-23T14:09:42.420Z,44.59
2023-10-23T14:12:02.159Z,46.90
2023-10-23T14:14:50.584Z,47.81
2023-10-23T14:17:26.369Z,47.75
2023-10-23T14:20:23.739Z,47.77
2023-10-23T14:23:19.528Z,48.68
2023-10-23T14:26:08.730Z,49.63
2023-10-23T14:28:50.565Z,50.70
2023-10-23T14:31:45.633Z,51.18
2023-10-23T14:34:33.718Z,51.27
2023-10-23T14:37:09.006Z,51.57
2023-10-23T14:39:59.389Z,51.83
2023-10-23T14:42:34.961Z,51.70
2023-10-23T14:45:22.584Z,52.56
2023-10-23T14:48:04.269Z,53.84
2023-10-23T14:50:45.592Z,54.22
2023-10-23T14:53:27.892Z,54.70
2023-10-23T14:56:16.566Z,55.53
2023-10-23T14:58:57.777Z,54.82
2023-10-23T15:01:39.606Z,55.23
2023-10-23T15:04:21.672Z,55.42
2023-10-23T15:07:03.651Z,55.65
2023-10-23T15:09:44.603Z,55.78
2023-10-23T15:12:25.478Z,56.04
2023-10-23T15:15:13.475Z,56.44
2023-10-23T15:17:48.034Z,56.54
2023-10-23T15:20:37.832Z,56.79
2023-10-23T15:23:32.702Z,56.98
2023-10-23T15:26:20.495Z,57.51
2023-10-23T15:28:55.772Z,57.74
2023-10-23T15:31:43.540Z,57.98
2023-10-23T15:34:18.721Z,58.92
2023-10-23T15:37:06.559Z,59.74
2023-10-23T15:39:46.212Z,60.19
2023-10-23T15:42:36.497Z,60.64
2023-10-23T15:45:12.372Z,61.26
2023-10-23T15:48:07.545Z,61.77
2023-10-23T15:50:49.488Z,71.33
2023-10-23T15:53:37.532Z,67.72
2023-10-23T15:56:12.674Z,56.65
2023-10-23T15:59:00.499Z,54.39
2023-10-23T16:01:35.836Z,56.42
2023-10-23T16:04:23.536Z,58.58
2023-10-23T16:07:05.567Z,60.01
2023-10-23T16:10:00.535Z,60.40
2023-10-23T16:12:50.501Z,60.52
2023-10-23T16:15:27.623Z,61.04
2023-10-23T16:18:19.510Z,61.20
2023-10-23T16:20:58.558Z,61.17
2023-10-23T16:23:46.493Z,61.45
2023-10-23T16:26:21.664Z,70.74
2023-10-23T16:29:09.619Z,68.85
2023-10-23T16:31:51.613Z,60.83
2023-10-23T16:34:46.558Z,52.60
2023-10-23T16:37:40.267Z,51.76
2023-10-23T16:40:16.715Z,53.32
2023-10-23T16:43:07.552Z,54.38
2023-10-23T16:45:48.634Z,55.63
2023-10-23T16:48:29.496Z,56.91
2023-10-23T16:51:36.048Z,58.24
2023-10-23T16:54:26.504Z,59.12
2023-10-23T16:57:21.494Z,59.64
2023-10-23T17:00:11.329Z,60.01
2023-10-23T17:02:46.731Z,59.99
2023-10-23T17:05:35.515Z,60.19
2023-10-23T17:08:10.665Z,60.94
2023-10-23T17:10:58.502Z,69.07
2023-10-23T17:13:33.741Z,66.03
2023-10-23T17:16:21.531Z,54.75
2023-10-23T17:18:56.709Z,52.65
2023-10-23T17:21:51.823Z,53.80
2023-10-23T17:24:46.533Z,55.03
2023-10-23T17:27:35.543Z,56.95
2023-10-23T17:30:11.864Z,57.48
2023-10-23T17:33:00.611Z,57.81
2023-10-23T17:35:35.937Z,58.15
2023-10-23T17:38:25.531Z,58.86
2023-10-23T17:41:00.660Z,59.38
2023-10-23T17:43:49.342Z,59.77
2023-10-23T17:46:24.900Z,60.27
2023-10-23T17:49:19.723Z,60.97
2023-10-23T17:51:56.065Z,61.20
2023-10-23T17:54:46.630Z,70.24
2023-10-23T17:57:29.754Z,65.86
2023-10-23T18:00:28.993Z,54.80
2023-10-23T18:03:17.774Z,54.24
2023-10-23T18:05:53.313Z,56.33
2023-10-23T18:08:42.501Z,57.77
2023-10-23T18:11:20.465Z,59.09
2023-10-23T18:14:08.525Z,60.01
2023-10-23T18:16:43.865Z,61.22
2023-10-23T18:19:32.665Z,70.24
2023-10-23T18:22:15.482Z,65.01
2023-10-23T18:25:11.604Z,55.66
2023-10-23T18:28:01.607Z,54.98
2023-10-23T18:30:38.708Z,57.10
2023-10-23T18:33:26.488Z,58.88
2023-10-23T18:36:09.570Z,60.45
2023-10-23T18:38:51.464Z,69.06
2023-10-23T18:48:03.012Z,55.92
2023-10-23T18:50:51.631Z,57.95
2023-10-23T18:53:26.610Z,59.43
2023-10-23T18:56:14.476Z,61.11
2023-10-23T18:58:50.136Z,69.53
2023-10-23T19:01:39.329Z,64.17
2023-10-23T19:04:14.807Z,55.61
2023-10-23T19:07:02.773Z,54.76
2023-10-23T19:09:38.735Z,56.76
2023-10-23T19:12:28.745Z,58.86
2023-10-23T19:15:10.081Z,60.06
2023-10-23T19:17:53.395Z,61.38
2023-10-23T19:20:37.397Z,70.91
2023-10-23T19:23:19.765Z,63.94
2023-10-23T19:26:08.449Z,55.42
2023-10-23T19:28:49.750Z,55.14
2023-10-23T19:31:41.588Z,56.99
2023-10-23T19:34:17.112Z,58.70
2023-10-23T19:37:06.865Z,60.31
2023-10-23T19:39:42.421Z,61.32
2023-10-23T19:42:32.480Z,69.45
2023-10-23T19:45:09.082Z,65.16
2023-10-23T19:47:58.508Z,55.81
2023-10-23T19:50:46.062Z,55.41
2023-10-23T19:53:41.452Z,58.37
2023-10-23T19:56:32.864Z,60.75
2023-10-23T19:59:14.854Z,70.04
2023-10-23T20:01:56.621Z,64.61
2023-10-23T20:04:38.974Z,56.22
2023-10-23T20:07:20.512Z,55.81
2023-10-23T20:10:02.609Z,57.59
2023-10-23T20:12:43.535Z,58.11
2023-10-23T20:15:28.071Z,60.20
2023-10-23T20:18:09.658Z,68.35
2023-10-23T20:20:57.770Z,67.24
2023-10-23T20:23:34.265Z,60.80
2023-10-23T20:26:29.503Z,55.60
2023-10-23T20:29:03.889Z,56.48
2023-10-23T20:31:51.533Z,58.59
2023-10-23T20:34:32.814Z,61.13
2023-10-23T20:37:20.881Z,69.90
2023-10-23T20:39:57.087Z,64.56
2023-10-23T20:42:46.531Z,58.61
2023-10-23T20:45:22.115Z,54.65
2023-10-23T20:48:12.864Z,56.60
2023-10-23T20:51:01.749Z,59.56
2023-10-23T20:53:37.606Z,60.30
2023-10-23T20:56:28.138Z,60.86
2023-10-23T20:59:04.447Z,69.25
2023-10-23T21:01:53.536Z,64.71
2023-10-23T21:04:29.393Z,59.64
2023-10-23T21:07:18.497Z,54.32
2023-10-23T21:10:00.916Z,55.64
2023-10-23T21:12:56.000Z,58.73
2023-10-23T21:15:43.449Z,67.73
2023-10-23T21:18:25.447Z,63.90
2023-10-23T21:21:20.433Z,58.29
2023-10-23T21:24:08.438Z,55.57
2023-10-23T21:26:43.599Z,58.04
2023-10-23T21:29:32.461Z,60.66
2023-10-23T21:32:07.637Z,68.35
2023-10-23T21:34:55.467Z,64.03
2023-10-23T21:37:37.478Z,56.81
2023-10-23T21:40:25.459Z,55.90
2023-10-23T21:43:07.477Z,59.00
2023-10-23T21:49:05.495Z,71.04
2023-10-23T21:52:00.487Z,63.46
2023-10-23T21:54:48.478Z,55.86
2023-10-23T21:57:23.877Z,56.32
2023-10-23T22:00:17.477Z,58.82
2023-10-23T22:02:59.508Z,59.90
2023-10-23T22:05:56.437Z,68.01
2023-10-23T22:08:45.741Z,65.61
2023-10-23T22:11:21.568Z,62.34
2023-10-23T22:14:11.431Z,56.59
2023-10-23T22:16:47.090Z,55.66
2023-10-23T22:19:39.395Z,58.87
2023-10-23T22:22:14.596Z,60.77
2023-10-23T22:25:02.457Z,69.98
2023-10-23T22:27:44.452Z,65.94
2023-10-23T22:30:27.034Z,59.91
2023-10-23T22:33:16.474Z,55.10
2023-10-23T22:35:59.530Z,56.71
2023-10-23T22:38:40.745Z,59.33
2023-10-23T22:41:22.451Z,60.61
2023-10-23T22:44:10.463Z,68.63
2023-10-23T22:46:45.031Z,64.11
2023-10-23T22:49:33.494Z,55.39
2023-10-23T22:52:28.548Z,55.07
2023-10-23T22:55:18.484Z,58.62
2023-10-23T22:57:53.841Z,61.49
2023-10-23T23:00:41.456Z,69.34
2023-10-23T23:03:23.550Z,62.69
2023-10-23T23:06:13.456Z,54.55
2023-10-23T23:08:56.464Z,55.12
2023-10-23T23:11:51.465Z,57.73
2023-10-23T23:14:39.609Z,60.31
2023-10-23T23:17:14.677Z,67.99
2023-10-23T23:20:03.475Z,63.19
2023-10-23T23:22:38.726Z,54.68
2023-10-23T23:25:27.480Z,54.44
2023-10-23T23:28:02.572Z,57.03
2023-10-23T23:30:50.463Z,59.37
2023-10-23T23:33:32.554Z,60.70
2023-10-23T23:36:27.467Z,61.07
2023-10-23T23:39:17.450Z,70.91
2023-10-23T23:42:00.483Z,64.74
2023-10-23T23:44:55.453Z,56.19
2023-10-23T23:47:43.499Z,55.98
2023-10-23T23:50:38.445Z,57.19
2023-10-23T23:53:26.433Z,59.87
2023-10-23T23:56:00.584Z,68.48
2023-10-23T23:58:48.446Z,65.99
